Historyczne dane pomiarowe

Dodano dane terminowe – wersja testowa.

Dane z okresu 1951-2019

Wersja bazy: 1.34 [2019-03-16, lista zmian], aktualizacja planowana na 2019-04-15

Dane meteo z obszaru Polski uzyskane na podstawie danych udostępnionych przez Instytut Meteorologii i Gospodarki Wodnej – Państwowy Instytut Badawczy.

 

Wybierz Datę:    

       

TemperaturaWilgotnośćWiatrCiśnienieOpadyŚniegCzas trwania zjawisk
 Stacja t tx tn tng RH VA  wxwx mslp ppp RRR   cm mm wxwxwxwxwxwxwx
1999-08-14 13.2 19.9 6.2- 79.8- 1.3 1.0---- 0.0------------
1999-08-13 15.1 19.4 11.7- 77.3- 7.3 0.3---- 0.0------------
1999-08-12 15.7 18.4 14.1- 86.8- 8.0 0.3---- 0.0------------
1999-08-11 18.7 24.9 15.1- 88.5- 6.0 0.3---- 16.2------------
1999-08-10 20.9 29.4 15.6- 85.0- 6.3 1.0---- 21.4------------
1999-08-09 20.8 30.4 13.6- 77.0- 2.7 1.3---- 0.5------------
1999-08-08 21.8 29.3 15.8- 77.8- 5.3 0.0---- 0.0------------
1999-08-07 20.0 27.5 12.8- 83.0- 4.3 0.3---- 3.6------------
1999-08-06 19.7 24.9 14.7- 89.5- 6.0 0.7---- 5.9------------
1999-08-05 17.5 25.4 10.2- 69.0- 2.7 1.3---- 0.0------------
1999-08-04 16.2 23.3 9.2- 79.5- 3.0 0.3---- 0.0------------
1999-08-03 15.0 21.4 9.7- 79.8- 6.0 1.0---- 0.0------------
1999-08-02 14.5 19.0 10.2- 86.5- 7.7 0.7---- 0.8------------
1999-08-01 16.0 21.8 12.2- 91.3- 8.0 0.3---- 4.2------------
1999-07-31 17.0 23.5 9.7- 86.0- 6.3 0.3---- 1.6------------
1999-07-30 16.0 23.7 8.7- 92.8- 3.3 0.7---- 0.0------------
1999-07-29 17.0 21.9 11.6- 79.3- 3.3 1.0---- 0.0------------
1999-07-28 19.9 26.4 16.1- 88.8- 6.7 0.0---- 0.0------------
1999-07-27 19.3 22.4 17.6- 94.5- 8.0 0.7---- 2.0------------
1999-07-26 19.1 25.9 12.2- 83.0- 7.0 0.0---- 0.0------------
1999-07-25 17.5 23.7 11.7- 81.0- 6.0 1.0---- 0.0------------
1999-07-24 15.7 19.9 11.7- 92.0- 7.3 0.0---- 0.0------------
1999-07-23 15.2 19.5 13.1- 98.8- 8.0 0.7---- 17.9------------
1999-07-22 19.2 26.4 14.6- 85.5- 4.0 0.7---- 12.3------------
1999-07-21 21.8 29.8 14.1- 77.0- 3.7 0.3---- 0.0------------
1999-07-20 20.9 29.3 12.2- 66.5- 0.7 0.0---- 0.0------------
1999-07-19 18.2 26.9 10.7- 80.0- 0.0 0.7---- 0.0------------
1999-07-18 17.2 24.3 9.4- 72.8- 0.7 1.3---- 0.0------------
1999-07-17 16.3 22.2 12.2- 80.5- 4.3 1.0---- 0.0------------
1999-07-16 16.5 22.9 10.7- 77.8- 5.7 1.0---- 0.0------------
1999-07-15 18.0 21.9 15.6- 69.5- 6.7 1.7---- 0.0------------
1999-07-14 20.1 25.4 15.6- 83.3- 6.7 1.3---- 2.1------------
1999-07-13 21.2 25.9 17.0- 77.0- 5.7 1.0---- 0.6------------
1999-07-12 20.0 26.5 15.4- 86.8- 6.7 0.3---- 1.8------------
1999-07-11 19.6 21.5 18.1- 97.8- 7.3 0.0---- 19.9------------
1999-07-10 18.9 21.3 16.1- 85.8- 8.0 0.3---- 0.0------------
1999-07-09 18.8 23.3 16.1- 95.8- 5.7 1.0---- 0.3------------
1999-07-08 20.3 24.3 17.5- 91.3- 7.3 0.7---- 20.6------------
1999-07-07 20.7 29.1 15.7- 68.5- 6.0 1.0---- 37.2------------
1999-07-06 23.7 31.3 15.6- 69.3- 0.0 1.7---- 0.0------------
1999-07-05 22.8 31.5 15.1- 68.8- 0.0 1.3---- 0.0------------
1999-07-04 21.8 29.8 12.2- 64.5- 0.0 0.3---- 0.0------------
1999-07-03 19.5 25.5 13.2- 81.8- 6.3 0.7---- 0.0------------
1999-07-02 19.4 24.2 16.7- 80.3- 7.7 1.3---- 18.8------------
1999-07-01 18.2 24.9 12.0- 75.8- 5.7 2.0---- 0.0------------
1999-06-30 19.7 25.1 13.2- 67.5- 3.7 1.0---- 0.0------------
1999-06-29 19.6 24.5 13.6- 67.3- 5.0 0.7---- 0.0------------
1999-06-28 18.9 27.9 10.7- 61.8- 4.0 1.7---- 0.0------------
1999-06-27 19.0 27.4 8.6- 60.3- 1.0 0.7---- 0.0------------
1999-06-26 15.2 24.5 5.2- 73.3- 1.7 1.0---- 0.0------------
1999-06-25 13.1 19.7 5.2- 90.5- 2.7 1.0---- 0.0------------
1999-06-24 10.0 13.9 8.4- 90.0- 8.0 0.0---- 0.0------------
1999-06-23 9.7 12.0 8.2- 99.0- 8.0 2.0---- 5.6------------
1999-06-22 13.2 17.0 11.7- 98.5- 8.0 1.0---- 8.2------------
1999-06-21 18.3 23.9 15.7- 95.3- 6.7 0.0---- 18.5------------
1999-06-20 17.8 22.9 14.1- 83.5- 7.3 0.3---- 4.2------------
1999-06-19 17.5 20.9 14.6- 81.8- 7.7 1.0---- 0.0------------
1999-06-18 18.2 21.4 15.9- 94.8- 8.0 0.7---- 5.5------------
1999-06-17 18.1 22.7 15.6- 89.3- 7.3 0.3---- 18.8------------
1999-06-16 17.9 20.4 16.0- 96.3- 8.0 0.3---- 1.4------------
321.6 ms

 

Źródłem pochodzenia danych jest Instytut Meteorologii i Gospodarki Wodnej – Państwowy Instytut Badawczy. Dane Instytutu Meteorologii i Gospodarki Wodnej – Państwowego Instytutu Badawczego zostały przetworzone.

Dane źródłowe można odnaleźć na stronie https://dane.imgw.pl